Pagrindinis puslapis
METAR-TAF:

METAR-TAF

Oro uostai :

Trondheimas, Norvegija

platuma: 63-28N, ilguma: 010-56E, Aukštis: 1 m

Dabartinis oras

Ataskaita buvo paskelbta 20 minutes, ne 13:50 UTC
Vėjas 3 kt nuo kintamojo kryptimis
Temperatūra 4°C
Drėgmė 60%
Slėgis 1003 hPa
Matomumas 10 km arba daugiau
Mažai debesys ne aukštis 3200 ft

METAR: ENVA 191350Z VRB03KT 9999 FEW032 04/M03 Q1003 NOSIG RMK WIND 670FT VRB03KT

Laikas: 15:10 (14:10 UTC)

Prognozė

Prognozė galioja nuo 19 metu 12 UTC su 20 metu 12 UTC
Vėjas 6 kt nuo kintamojo kryptimis
Matomumas 10 km arba daugiau
Mažai debesys ne aukštis 3000 ft
Išsisklaidę debesys ne aukštis 4000 ft
Tapsmas
nuo 19 metu 21 UTC su 19 metu 24 UTC
Vėjas 10 kt iš Rytų/Pietryčių
Tapsmas
nuo 20 metu 01 UTC su 20 metu 03 UTC
Vėjas 15 kt iš Pietryčių su gūsio iki 25 kt
Laikinai
nuo 20 metu 03 UTC su 20 metu 12 UTC
Vėjas 25 kt iš Pietų su gūsio iki 38 kt

TAF: ENVA 1912/2012 VRB06KT 9999 FEW030 SCT040 BECMG 1921/1924 12010KT BECMG 2001/2003 14015G25KT TEMPO 2003/2012 17025G38KT

Orai ataskaitas ir orų prognozės (METAR, TAF).

turimą stotys yra geltonos ir raudonos taškus žemėlapyje.

Perkelti pele per norėdami pamatyti stoties vardą.

Tada spustelėkite, norėdami matyti oro stebėjimo ir prognozės.

Norėdami pakeisti žemėlapį: spustelėkite ant žalios mygtukų su juodo kryžiaus žemyn,; žalią mygtuką su brūkšneliu, jei norite nutolinti; arba žalių rodyklių gretimoms žemėlapius.


METAR-TAF: